createdAt,value
2018-11-28T00:00:27.860Z,91.70
2018-11-28T00:02:56.689Z,92.20
2018-11-28T00:05:25.180Z,91.90
2018-11-28T00:07:53.536Z,91.50
2018-11-28T00:10:22.177Z,91.40
2018-11-28T00:12:50.529Z,90.90
2018-11-28T00:15:19.632Z,92.20
2018-11-28T00:17:48.013Z,91.10
2018-11-28T00:20:19.298Z,91.50
2018-11-28T00:22:47.773Z,91.20
2018-11-28T00:25:17.204Z,91.10
2018-11-28T00:27:45.495Z,91.60
2018-11-28T00:30:16.944Z,91.40
2018-11-28T00:32:45.480Z,91.20
2018-11-28T00:35:15.457Z,91.20
2018-11-28T00:37:44.024Z,91.30
2018-11-28T00:40:14.886Z,91.40
2018-11-28T00:42:43.311Z,91.60
2018-11-28T00:45:17.617Z,91.40
2018-11-28T00:47:46.067Z,92.00
2018-11-28T00:50:22.159Z,91.30
2018-11-28T00:52:51.257Z,91.80
2018-11-28T00:55:19.742Z,91.20
2018-11-28T00:57:48.732Z,91.80
2018-11-28T01:00:19.076Z,91.10
2018-11-28T01:02:48.354Z,91.10
2018-11-28T01:05:16.824Z,91.50
2018-11-28T01:07:46.648Z,91.40
2018-11-28T01:10:17.638Z,91.50
2018-11-28T01:12:46.554Z,91.00
2018-11-28T01:15:16.366Z,91.20
2018-11-28T01:17:44.921Z,91.00
2018-11-28T01:20:19.936Z,91.30
2018-11-28T01:22:48.696Z,91.30
2018-11-28T01:25:19.585Z,90.80
2018-11-28T01:27:48.583Z,91.00
2018-11-28T01:30:23.319Z,90.30
2018-11-28T01:32:51.709Z,90.70
2018-11-28T01:35:22.694Z,90.80
2018-11-28T01:37:51.059Z,91.00
2018-11-28T01:40:21.165Z,90.80
2018-11-28T01:42:49.718Z,90.40
2018-11-28T01:45:19.522Z,90.50
2018-11-28T01:47:47.993Z,90.50
2018-11-28T01:50:18.771Z,91.20
2018-11-28T01:52:47.235Z,90.90
2018-11-28T01:55:18.188Z,90.80
2018-11-28T01:57:47.366Z,91.00
2018-11-28T02:00:26.159Z,90.70
2018-11-28T02:02:58.233Z,90.60
2018-11-28T02:05:26.659Z,90.80
2018-11-28T02:07:55.083Z,90.90
2018-11-28T02:10:23.400Z,90.80
2018-11-28T02:12:51.692Z,90.80
2018-11-28T02:15:26.055Z,91.30
2018-11-28T02:17:55.666Z,91.50
2018-11-28T02:20:26.022Z,91.20
2018-11-28T02:22:54.462Z,91.20
2018-11-28T02:25:22.796Z,91.40
2018-11-28T02:27:51.146Z,91.50
2018-11-28T02:30:20.422Z,91.20
2018-11-28T02:32:49.737Z,91.30
2018-11-28T02:35:19.249Z,91.30
2018-11-28T02:37:49.193Z,91.30
2018-11-28T02:40:18.959Z,91.10
2018-11-28T02:42:48.843Z,90.90
2018-11-28T02:45:20.443Z,90.80
2018-11-28T02:47:50.023Z,91.20
2018-11-28T02:50:18.390Z,90.90
2018-11-28T02:52:46.825Z,91.00
2018-11-28T02:55:17.330Z,91.20
2018-11-28T02:57:47.441Z,91.00
2018-11-28T03:00:20.109Z,90.90
2018-11-28T03:02:48.800Z,90.90
2018-11-28T03:05:19.567Z,91.00
2018-11-28T03:07:48.391Z,90.90
2018-11-28T03:10:22.058Z,91.10
2018-11-28T03:12:50.937Z,90.90
2018-11-28T03:15:53.897Z,91.20
2018-11-28T03:18:23.496Z,90.90
2018-11-28T03:20:51.961Z,91.40
2018-11-28T03:23:20.783Z,91.00
2018-11-28T03:25:49.450Z,90.80
2018-11-28T03:28:18.535Z,90.90
2018-11-28T03:30:47.438Z,90.50
2018-11-28T03:33:16.128Z,90.40
2018-11-28T03:35:45.477Z,90.90
2018-11-28T03:38:14.297Z,90.70
2018-11-28T03:40:43.250Z,91.20
2018-11-28T03:43:12.091Z,91.10
2018-11-28T03:45:42.398Z,91.00
2018-11-28T03:48:11.090Z,90.70
2018-11-28T03:50:39.739Z,90.70
2018-11-28T03:53:08.390Z,90.80
2018-11-28T03:55:36.778Z,90.80
2018-11-28T03:58:05.277Z,90.60
2018-11-28T04:00:33.802Z,90.90
2018-11-28T04:03:02.253Z,90.10
2018-11-28T04:05:31.126Z,90.70
2018-11-28T04:07:59.695Z,90.40
2018-11-28T04:10:29.532Z,90.40
2018-11-28T04:13:00.426Z,90.50
2018-11-28T04:15:29.884Z,89.40
2018-11-28T04:17:59.174Z,90.10
2018-11-28T04:20:28.230Z,90.30
2018-11-28T04:22:57.020Z,90.50
2018-11-28T04:25:25.456Z,90.30
2018-11-28T04:27:54.460Z,90.50
2018-11-28T04:30:24.145Z,90.50
2018-11-28T04:32:54.160Z,90.00
2018-11-28T04:35:22.653Z,90.50
2018-11-28T04:37:50.977Z,90.70
2018-11-28T04:40:20.778Z,90.60
2018-11-28T04:42:49.503Z,91.30
2018-11-28T04:45:24.697Z,90.90
2018-11-28T04:47:54.476Z,91.40
2018-11-28T04:50:23.005Z,91.10
2018-11-28T04:52:51.293Z,91.70
2018-11-28T04:55:20.408Z,91.70
2018-11-28T04:57:48.784Z,92.00
2018-11-28T05:00:23.662Z,92.30
2018-11-28T05:02:53.501Z,92.10
2018-11-28T05:05:21.797Z,92.20
2018-11-28T05:07:51.240Z,92.20
2018-11-28T05:10:22.829Z,92.00
2018-11-28T05:12:52.403Z,92.10
2018-11-28T05:15:22.177Z,91.90
2018-11-28T05:17:53.671Z,91.50
2018-11-28T05:20:26.037Z,92.20
2018-11-28T05:22:55.525Z,92.30
2018-11-28T05:25:25.119Z,92.20
2018-11-28T05:27:55.886Z,92.30
2018-11-28T05:30:26.745Z,92.00
2018-11-28T05:32:55.959Z,92.20
2018-11-28T05:35:32.912Z,92.30
2018-11-28T05:38:02.516Z,92.60
2018-11-28T05:40:30.775Z,92.30
2018-11-28T05:43:01.166Z,92.30
2018-11-28T05:45:31.622Z,92.60
2018-11-28T05:47:59.897Z,92.60
2018-11-28T05:50:28.367Z,92.80
2018-11-28T05:52:57.547Z,92.80
2018-11-28T05:55:26.061Z,91.80
2018-11-28T05:57:54.498Z,92.10
2018-11-28T06:00:31.156Z,92.00
2018-11-28T06:03:00.537Z,92.30
2018-11-28T06:05:28.911Z,92.20
2018-11-28T06:07:57.252Z,92.10
2018-11-28T06:10:25.632Z,92.30
2018-11-28T06:12:53.981Z,92.10
2018-11-28T06:15:22.386Z,92.30
2018-11-28T06:17:50.795Z,92.50
2018-11-28T06:20:26.615Z,92.90
2018-11-28T06:22:54.872Z,92.20
2018-11-28T06:25:23.252Z,92.10
2018-11-28T06:27:51.466Z,92.20
2018-11-28T06:30:20.493Z,92.40
2018-11-28T06:32:51.460Z,92.40
2018-11-28T06:35:17.313Z,92.00
2018-11-28T06:37:45.593Z,92.10
2018-11-28T06:40:17.059Z,92.20
2018-11-28T06:42:47.217Z,92.10
2018-11-28T06:45:18.568Z,92.20
2018-11-28T06:47:46.931Z,92.00
2018-11-28T06:50:18.006Z,92.30
2018-11-28T06:52:50.715Z,92.00
2018-11-28T06:55:20.719Z,92.40
2018-11-28T06:57:48.973Z,91.90
2018-11-28T07:00:20.858Z,91.90
2018-11-28T07:02:50.762Z,92.40
2018-11-28T07:05:19.362Z,91.40
2018-11-28T07:07:47.739Z,92.20
2018-11-28T07:10:20.671Z,92.00
2018-11-28T07:12:48.974Z,91.90
2018-11-28T07:15:19.231Z,92.10
2018-11-28T07:17:47.686Z,91.50
2018-11-28T07:20:16.652Z,92.20
2018-11-28T07:22:45.056Z,91.20
2018-11-28T07:25:16.707Z,91.90
2018-11-28T07:27:46.263Z,92.10
2018-11-28T07:30:22.316Z,92.80
2018-11-28T07:32:52.789Z,92.70
2018-11-28T07:35:21.049Z,92.90
2018-11-28T07:37:49.458Z,93.30
2018-11-28T07:40:19.972Z,93.00
2018-11-28T07:43:22.838Z,92.80
2018-11-28T07:45:52.141Z,92.50
2018-11-28T07:48:20.412Z,92.30
2018-11-28T07:50:48.761Z,93.00
2018-11-28T07:53:17.040Z,92.10
2018-11-28T07:55:45.287Z,92.10
2018-11-28T07:58:13.852Z,92.40
2018-11-28T08:00:42.728Z,92.50
2018-11-28T08:03:12.208Z,92.90
2018-11-28T08:05:39.553Z,92.60
2018-11-28T08:08:10.591Z,92.80
2018-11-28T08:10:38.870Z,92.40
2018-11-28T08:13:07.927Z,92.00
2018-11-28T08:15:36.209Z,92.70
2018-11-28T08:18:04.580Z,93.00
2018-11-28T08:20:33.354Z,93.20
2018-11-28T08:23:01.568Z,93.20
2018-11-28T08:25:30.237Z,93.40
2018-11-28T08:27:58.629Z,92.40
2018-11-28T08:30:27.505Z,93.10
2018-11-28T08:32:57.038Z,93.20
2018-11-28T08:35:25.913Z,93.30
2018-11-28T08:37:54.585Z,93.20
2018-11-28T08:40:24.737Z,93.00
2018-11-28T08:42:54.510Z,93.40
2018-11-28T08:45:23.060Z,92.70
2018-11-28T08:47:54.211Z,93.40
2018-11-28T08:50:25.918Z,93.50
2018-11-28T08:52:54.344Z,93.40
2018-11-28T08:55:23.229Z,93.30
2018-11-28T08:57:51.706Z,93.30
2018-11-28T09:00:22.841Z,92.70
2018-11-28T09:02:53.768Z,93.00
2018-11-28T09:05:22.221Z,92.50
2018-11-28T09:07:50.656Z,92.00
2018-11-28T09:10:19.790Z,92.40
2018-11-28T09:12:48.987Z,92.20
2018-11-28T09:15:20.266Z,91.90
2018-11-28T09:17:48.557Z,92.30
2018-11-28T09:20:16.968Z,92.50
2018-11-28T09:22:45.384Z,92.20
2018-11-28T09:25:16.088Z,92.70
2018-11-28T09:27:46.315Z,92.50
2018-11-28T09:30:16.162Z,92.80
2018-11-28T09:32:44.709Z,92.90
2018-11-28T09:35:14.003Z,92.20
2018-11-28T09:37:45.557Z,92.60
2018-11-28T09:40:27.105Z,92.60
2018-11-28T09:42:57.240Z,92.50
2018-11-28T09:45:25.805Z,92.60
2018-11-28T09:47:54.052Z,92.00
2018-11-28T09:50:25.584Z,92.60
2018-11-28T09:52:54.029Z,92.60
2018-11-28T09:55:27.586Z,92.50
2018-11-28T09:57:56.856Z,92.70
2018-11-28T10:00:26.601Z,92.70
2018-11-28T10:02:56.895Z,93.20
2018-11-28T10:05:26.973Z,93.20
2018-11-28T10:07:55.249Z,92.60
2018-11-28T10:10:23.576Z,92.30
2018-11-28T10:12:51.872Z,92.70
2018-11-28T10:15:23.222Z,92.90
2018-11-28T10:17:51.687Z,93.00
2018-11-28T10:20:20.356Z,93.20
2018-11-28T10:22:50.376Z,93.30
2018-11-28T10:25:20.374Z,93.20
2018-11-28T10:28:00.721Z,93.10
2018-11-28T10:30:31.904Z,93.30
2018-11-28T10:33:00.270Z,93.40
2018-11-28T10:35:28.735Z,93.10
2018-11-28T10:37:57.169Z,93.10
2018-11-28T10:40:25.870Z,93.40
2018-11-28T10:42:56.021Z,93.50
2018-11-28T10:45:26.197Z,93.50
2018-11-28T10:47:54.672Z,93.00
2018-11-28T10:50:22.975Z,93.10
2018-11-28T10:52:51.470Z,92.90
2018-11-28T10:55:22.022Z,93.30
2018-11-28T10:57:50.780Z,93.40
2018-11-28T11:00:30.430Z,93.10
2018-11-28T11:03:04.257Z,92.90
2018-11-28T11:05:38.153Z,92.80
2018-11-28T11:08:12.559Z,93.00
2018-11-28T11:10:46.646Z,92.90
2018-11-28T11:13:20.513Z,93.30
2018-11-28T11:15:55.859Z,93.00
2018-11-28T11:18:24.773Z,92.30
2018-11-28T11:20:53.269Z,93.20
2018-11-28T11:23:21.616Z,92.80
2018-11-28T11:25:50.399Z,93.30
2018-11-28T11:28:19.082Z,92.70
2018-11-28T11:30:47.572Z,93.30
2018-11-28T11:33:15.889Z,93.10
2018-11-28T11:35:44.319Z,92.70
2018-11-28T11:38:12.699Z,93.00
2018-11-28T11:40:41.047Z,93.20
2018-11-28T11:43:09.891Z,93.40
2018-11-28T11:45:39.603Z,93.00
2018-11-28T11:48:06.678Z,92.70
2018-11-28T11:50:35.242Z,93.50
2018-11-28T11:53:03.684Z,93.70
2018-11-28T11:55:32.032Z,93.60
2018-11-28T11:58:00.364Z,93.30
2018-11-28T12:00:28.715Z,93.50
2018-11-28T12:03:07.929Z,93.40
2018-11-28T12:05:36.279Z,93.10
2018-11-28T12:08:09.950Z,92.90
2018-11-28T12:10:38.214Z,92.60
2018-11-28T12:13:06.566Z,92.80
2018-11-28T12:15:35.774Z,92.50
2018-11-28T12:18:03.745Z,92.70
2018-11-28T12:20:43.828Z,92.80
2018-11-28T12:23:12.117Z,92.50
2018-11-28T12:25:40.466Z,91.80
2018-11-28T12:28:08.896Z,91.80
2018-11-28T12:30:37.307Z,91.70
2018-11-28T12:33:12.570Z,90.80
2018-11-28T12:35:41.239Z,91.50
2018-11-28T12:38:09.517Z,91.70
2018-11-28T12:40:38.035Z,91.70
2018-11-28T12:43:08.661Z,91.90
2018-11-28T12:45:44.081Z,92.00
2018-11-28T12:48:12.548Z,92.70
2018-11-28T12:50:40.889Z,92.40
2018-11-28T12:53:11.889Z,92.60
2018-11-28T12:55:40.310Z,92.60
2018-11-28T12:58:13.542Z,92.90
2018-11-28T13:00:44.262Z,92.30
2018-11-28T13:03:14.735Z,91.80
2018-11-28T13:05:43.093Z,92.10
2018-11-28T13:08:11.732Z,91.90
2018-11-28T13:10:41.503Z,92.20
2018-11-28T13:13:11.087Z,92.60
2018-11-28T13:15:40.083Z,92.90
2018-11-28T13:18:10.410Z,92.60
2018-11-28T13:20:40.796Z,93.20
2018-11-28T13:23:11.545Z,93.30
2018-11-28T13:25:45.874Z,93.30
2018-11-28T13:28:14.102Z,93.20
2018-11-28T13:30:42.349Z,93.50
2018-11-28T13:33:10.753Z,93.60
2018-11-28T13:36:01.542Z,93.70
2018-11-28T13:38:29.900Z,93.20
2018-11-28T13:40:58.220Z,93.70
2018-11-28T13:43:28.070Z,93.60
2018-11-28T13:45:58.215Z,94.10
2018-11-28T13:48:27.381Z,93.90
2018-11-28T13:50:56.577Z,94.10
2018-11-28T13:53:28.225Z,93.90
2018-11-28T13:58:31.710Z,94.30
2018-11-28T14:01:02.870Z,94.10
2018-11-28T14:03:31.934Z,94.20
2018-11-28T14:06:01.996Z,94.40
2018-11-28T14:08:39.094Z,94.00
2018-11-28T14:11:10.195Z,93.70
2018-11-28T14:13:39.147Z,94.20
2018-11-28T14:16:08.323Z,93.70
2018-11-28T14:18:39.215Z,94.30
2018-11-28T14:21:08.734Z,94.40
2018-11-28T14:23:38.177Z,94.20
2018-11-28T14:26:07.157Z,94.30
2018-11-28T14:28:37.276Z,94.20
2018-11-28T14:31:07.336Z,94.90
2018-11-28T14:33:35.957Z,94.50
2018-11-28T14:36:10.770Z,94.60
2018-11-28T14:38:40.309Z,94.80
2018-11-28T14:41:11.085Z,94.40
2018-11-28T14:43:40.106Z,94.10
2018-11-28T14:46:13.160Z,94.80
2018-11-28T14:48:42.349Z,94.80
2018-11-28T14:51:11.272Z,94.60
2018-11-28T14:53:40.920Z,94.80
2018-11-28T14:56:10.773Z,94.50
2018-11-28T14:58:43.559Z,94.80
2018-11-28T15:01:13.943Z,94.90
2018-11-28T15:03:45.112Z,94.90
2018-11-28T15:06:26.646Z,94.90
2018-11-28T15:09:01.272Z,95.00
2018-11-28T15:11:32.405Z,94.90
2018-11-28T15:14:03.716Z,95.10
2018-11-28T15:16:34.895Z,94.80
2018-11-28T15:19:08.135Z,94.80
2018-11-28T15:21:36.871Z,95.20
2018-11-28T15:24:11.882Z,94.60
2018-11-28T15:26:40.291Z,94.90
2018-11-28T15:29:09.425Z,94.70
2018-11-28T15:31:42.402Z,94.50
2018-11-28T15:34:13.687Z,94.80
2018-11-28T15:36:45.277Z,94.40
2018-11-28T15:39:14.672Z,94.80
2018-11-28T15:41:43.169Z,94.80
2018-11-28T15:44:17.711Z,94.90
2018-11-28T15:46:48.199Z,94.80
2018-11-28T15:49:16.657Z,94.70
2018-11-28T15:51:45.638Z,94.90
2018-11-28T15:54:22.789Z,95.10
2018-11-28T15:56:51.269Z,95.20
2018-11-28T15:59:22.744Z,94.80
2018-11-28T16:01:51.126Z,94.70
2018-11-28T16:04:21.568Z,94.60
2018-11-28T16:06:53.187Z,94.90
2018-11-28T16:09:31.201Z,95.00
2018-11-28T16:12:03.367Z,95.00
2018-11-28T16:14:34.807Z,94.20
2018-11-28T16:17:05.128Z,94.10
2018-11-28T16:19:33.856Z,94.60
2018-11-28T16:22:02.905Z,94.50
2018-11-28T16:24:31.307Z,94.50
2018-11-28T16:27:03.842Z,94.30
2018-11-28T16:29:33.021Z,94.90
2018-11-28T16:32:03.947Z,94.80
2018-11-28T16:34:33.470Z,94.70
2018-11-28T16:37:01.863Z,95.00
2018-11-28T16:39:33.741Z,94.80
2018-11-28T16:42:03.535Z,94.90
2018-11-28T16:44:31.965Z,95.10
2018-11-28T16:47:02.124Z,95.30
2018-11-28T16:49:38.837Z,95.20
2018-11-28T16:52:07.311Z,95.10
2018-11-28T16:54:35.706Z,94.90
2018-11-28T16:57:04.006Z,95.20
2018-11-28T16:59:32.517Z,95.10
2018-11-28T17:02:00.853Z,95.10
2018-11-28T17:04:29.987Z,95.50
2018-11-28T17:06:59.284Z,95.50
2018-11-28T17:09:34.451Z,95.50
2018-11-28T17:12:02.787Z,95.80
2018-11-28T17:14:31.076Z,95.60
2018-11-28T17:16:59.390Z,94.80
2018-11-28T17:19:27.654Z,95.40
2018-11-28T17:21:56.001Z,95.20
2018-11-28T17:24:24.477Z,94.70
2018-11-28T17:26:52.725Z,94.80
2018-11-28T17:29:21.082Z,94.80
2018-11-28T17:31:49.412Z,95.10
2018-11-28T17:34:18.043Z,95.40
2018-11-28T17:36:46.293Z,95.10
2018-11-28T17:39:14.596Z,94.70
2018-11-28T17:41:56.197Z,95.20
2018-11-28T17:44:27.635Z,95.30
2018-11-28T17:46:56.940Z,95.10
2018-11-28T17:49:27.987Z,95.10
2018-11-28T17:51:53.982Z,94.80
2018-11-28T17:54:24.150Z,94.50
2018-11-28T17:56:52.501Z,94.60
2018-11-28T17:59:21.493Z,94.00
2018-11-28T18:01:49.854Z,94.80
2018-11-28T18:04:18.281Z,94.60
2018-11-28T18:06:46.703Z,94.60
2018-11-28T18:09:15.194Z,94.90
2018-11-28T18:11:43.586Z,94.30
2018-11-28T18:14:12.164Z,94.30
2018-11-28T18:16:47.516Z,94.70
2018-11-28T18:19:16.079Z,94.70
2018-11-28T18:21:45.183Z,94.70
2018-11-28T18:24:13.867Z,94.60
2018-11-28T18:26:42.451Z,94.80
2018-11-28T18:29:11.029Z,94.30
2018-11-28T18:31:39.513Z,94.80
2018-11-28T18:34:09.173Z,94.60
2018-11-28T18:36:37.799Z,94.40
2018-11-28T18:39:08.621Z,94.10
2018-11-28T18:41:37.261Z,94.20
2018-11-28T18:44:06.790Z,94.40
2018-11-28T18:46:35.202Z,94.10
2018-11-28T18:49:04.024Z,94.70
2018-11-28T18:51:32.435Z,94.40
2018-11-28T18:54:01.154Z,95.00
2018-11-28T18:56:29.781Z,94.90
2018-11-28T18:58:58.327Z,94.40
2018-11-28T19:01:26.713Z,94.70
2018-11-28T19:03:56.043Z,94.80
2018-11-28T19:06:25.414Z,94.60
2018-11-28T19:08:53.923Z,95.40
2018-11-28T19:11:22.281Z,94.70
2018-11-28T19:13:50.650Z,94.80
2018-11-28T19:16:19.194Z,94.10
2018-11-28T19:18:47.603Z,94.60
2018-11-28T19:21:16.182Z,95.20
2018-11-28T19:23:44.593Z,94.60
2018-11-28T19:26:12.964Z,94.40
2018-11-28T19:28:41.454Z,94.40
2018-11-28T19:31:11.774Z,94.10
2018-11-28T19:33:41.036Z,94.70
2018-11-28T19:36:09.644Z,94.70
2018-11-28T19:38:38.042Z,94.60
2018-11-28T19:41:10.625Z,94.50
2018-11-28T19:43:39.094Z,94.80
2018-11-28T19:46:07.673Z,94.20
2018-11-28T19:48:36.195Z,94.40
2018-11-28T19:51:05.033Z,94.80
2018-11-28T19:53:33.490Z,94.70
2018-11-28T19:56:01.883Z,94.00
2018-11-28T19:58:30.372Z,94.40
2018-11-28T20:00:59.052Z,94.70
2018-11-28T20:03:29.287Z,94.20
2018-11-28T20:05:57.899Z,94.20
2018-11-28T20:08:26.397Z,93.90
2018-11-28T20:10:55.625Z,94.00
2018-11-28T20:13:24.118Z,94.50
2018-11-28T20:15:53.409Z,94.40
2018-11-28T20:18:21.898Z,94.10
2018-11-28T20:20:50.974Z,93.30
2018-11-28T20:23:19.284Z,94.10
2018-11-28T20:25:47.994Z,94.20
2018-11-28T20:28:16.748Z,93.80
2018-11-28T20:30:45.765Z,94.10
2018-11-28T20:33:16.978Z,94.20
2018-11-28T20:35:48.452Z,94.40
2018-11-28T20:38:24.308Z,93.90
2018-11-28T20:40:53.002Z,94.40
2018-11-28T20:43:21.512Z,94.40
2018-11-28T20:45:51.732Z,94.40
2018-11-28T20:48:20.752Z,94.40
2018-11-28T20:50:50.217Z,94.00
2018-11-28T20:53:22.399Z,94.30
2018-11-28T20:55:51.160Z,93.60
2018-11-28T20:58:19.982Z,93.90
2018-11-28T21:00:48.586Z,94.30
2018-11-28T21:03:17.271Z,94.30
2018-11-28T21:05:45.870Z,93.90
2018-11-28T21:08:14.282Z,94.50
2018-11-28T21:10:42.893Z,94.00
2018-11-28T21:13:12.804Z,94.10
2018-11-28T21:15:42.886Z,93.70
2018-11-28T21:18:11.333Z,94.60
2018-11-28T21:20:41.873Z,94.00
2018-11-28T21:23:13.448Z,94.60
2018-11-28T21:25:42.004Z,94.40
2018-11-28T21:28:10.576Z,94.40
2018-11-28T21:30:39.162Z,94.10
2018-11-28T21:33:09.464Z,94.30
2018-11-28T21:35:41.559Z,94.10
2018-11-28T21:38:10.081Z,94.10
2018-11-28T21:40:38.830Z,93.80
2018-11-28T21:43:07.507Z,94.20
2018-11-28T21:45:36.963Z,94.00
2018-11-28T21:48:06.331Z,93.50
2018-11-28T21:50:35.415Z,94.00
2018-11-28T21:53:04.668Z,93.90
2018-11-28T21:55:34.587Z,93.60
2018-11-28T21:58:09.409Z,93.30
2018-11-28T22:00:39.400Z,94.00
2018-11-28T22:03:08.121Z,93.50
2018-11-28T22:05:37.494Z,93.50
2018-11-28T22:08:06.209Z,93.50
2018-11-28T22:10:34.822Z,93.90
2018-11-28T22:13:03.371Z,94.00
2018-11-28T22:15:31.912Z,93.90
2018-11-28T22:18:00.671Z,93.90
2018-11-28T22:20:29.779Z,93.60
2018-11-28T22:22:58.485Z,93.70
2018-11-28T22:25:27.643Z,94.00
2018-11-28T22:27:56.419Z,93.90
2018-11-28T22:30:28.754Z,93.00
2018-11-28T22:32:58.093Z,93.80
2018-11-28T22:35:26.736Z,93.60
2018-11-28T22:37:55.794Z,93.80
2018-11-28T22:40:29.053Z,93.40
2018-11-28T22:42:57.764Z,93.50
2018-11-28T22:45:29.385Z,93.50
2018-11-28T22:47:58.735Z,93.30
2018-11-28T22:50:27.711Z,93.40
2018-11-28T22:52:56.367Z,92.50
2018-11-28T22:55:26.771Z,92.70
2018-11-28T22:57:55.338Z,93.10
2018-11-28T23:00:31.443Z,93.00
2018-11-28T23:03:08.393Z,93.20
2018-11-28T23:05:42.793Z,93.50
2018-11-28T23:08:13.472Z,93.40
2018-11-28T23:10:42.051Z,93.80
2018-11-28T23:13:12.289Z,93.30
2018-11-28T23:15:40.825Z,92.90
2018-11-28T23:18:10.752Z,92.90
2018-11-28T23:20:40.480Z,93.10
2018-11-28T23:23:10.336Z,93.60
2018-11-28T23:25:41.927Z,93.20
2018-11-28T23:28:10.463Z,93.90
2018-11-28T23:30:39.290Z,93.80
2018-11-28T23:33:10.474Z,93.80
2018-11-28T23:35:39.364Z,93.30
2018-11-28T23:38:08.267Z,94.20
2018-11-28T23:40:37.029Z,94.40
2018-11-28T23:43:05.897Z,93.90
2018-11-28T23:45:34.661Z,94.70
2018-11-28T23:48:03.469Z,94.10
2018-11-28T23:50:32.952Z,94.30
2018-11-28T23:53:01.480Z,94.60
2018-11-28T23:55:31.019Z,94.10
2018-11-28T23:57:59.567Z,93.90
